sensor_id;sensor_type;location;lat;lon;timestamp;temperature;humidity
76613;DHT22;65507;48.454;-2.058;2023-11-21T00:00:16;12.70;89.60
76613;DHT22;65507;48.454;-2.058;2023-11-21T00:02:43;12.60;89.50
76613;DHT22;65507;48.454;-2.058;2023-11-21T00:05:10;12.60;89.50
76613;DHT22;65507;48.454;-2.058;2023-11-21T00:07:37;12.60;89.70
76613;DHT22;65507;48.454;-2.058;2023-11-21T00:10:03;12.50;90.30
76613;DHT22;65507;48.454;-2.058;2023-11-21T00:12:31;12.50;89.90
76613;DHT22;65507;48.454;-2.058;2023-11-21T00:14:57;12.40;89.80
76613;DHT22;65507;48.454;-2.058;2023-11-21T00:17:23;12.40;89.90
76613;DHT22;65507;48.454;-2.058;2023-11-21T00:19:48;12.40;89.90
76613;DHT22;65507;48.454;-2.058;2023-11-21T00:22:14;12.40;89.90
76613;DHT22;65507;48.454;-2.058;2023-11-21T00:24:41;12.50;89.90
76613;DHT22;65507;48.454;-2.058;2023-11-21T00:27:07;12.50;89.90
76613;DHT22;65507;48.454;-2.058;2023-11-21T00:29:32;12.50;89.80
76613;DHT22;65507;48.454;-2.058;2023-11-21T00:31:58;12.50;89.80
76613;DHT22;65507;48.454;-2.058;2023-11-21T00:34:24;12.40;89.80
76613;DHT22;65507;48.454;-2.058;2023-11-21T00:36:49;12.40;89.80
76613;DHT22;65507;48.454;-2.058;2023-11-21T00:39:15;12.40;90.00
76613;DHT22;65507;48.454;-2.058;2023-11-21T00:41:41;12.30;90.00
76613;DHT22;65507;48.454;-2.058;2023-11-21T00:44:07;12.20;90.10
76613;DHT22;65507;48.454;-2.058;2023-11-21T00:46:33;12.10;90.20
76613;DHT22;65507;48.454;-2.058;2023-11-21T00:48:59;12.10;90.20
76613;DHT22;65507;48.454;-2.058;2023-11-21T00:51:24;12.00;90.30
76613;DHT22;65507;48.454;-2.058;2023-11-21T00:53:50;12.00;90.30
76613;DHT22;65507;48.454;-2.058;2023-11-21T00:56:16;12.10;90.30
76613;DHT22;65507;48.454;-2.058;2023-11-21T00:58:41;12.00;90.20
76613;DHT22;65507;48.454;-2.058;2023-11-21T01:01:15;12.10;90.20
76613;DHT22;65507;48.454;-2.058;2023-11-21T01:03:41;12.10;90.20
76613;DHT22;65507;48.454;-2.058;2023-11-21T01:06:07;12.10;90.10
76613;DHT22;65507;48.454;-2.058;2023-11-21T01:08:32;12.10;90.10
76613;DHT22;65507;48.454;-2.058;2023-11-21T01:10:58;12.10;90.20
76613;DHT22;65507;48.454;-2.058;2023-11-21T01:13:24;12.10;90.20
76613;DHT22;65507;48.454;-2.058;2023-11-21T01:15:53;12.00;90.20
76613;DHT22;65507;48.454;-2.058;2023-11-21T01:18:19;12.00;90.20
76613;DHT22;65507;48.454;-2.058;2023-11-21T01:20:47;12.00;90.20
76613;DHT22;65507;48.454;-2.058;2023-11-21T01:23:13;12.00;90.20
76613;DHT22;65507;48.454;-2.058;2023-11-21T01:25:39;12.00;90.10
76613;DHT22;65507;48.454;-2.058;2023-11-21T01:28:05;12.00;90.10
76613;DHT22;65507;48.454;-2.058;2023-11-21T01:30:31;12.00;90.00
76613;DHT22;65507;48.454;-2.058;2023-11-21T01:32:58;12.00;90.00
76613;DHT22;65507;48.454;-2.058;2023-11-21T01:35:24;12.00;90.00
76613;DHT22;65507;48.454;-2.058;2023-11-21T01:37:49;12.00;90.00
76613;DHT22;65507;48.454;-2.058;2023-11-21T01:40:16;12.00;90.10
76613;DHT22;65507;48.454;-2.058;2023-11-21T01:42:42;12.00;90.10
76613;DHT22;65507;48.454;-2.058;2023-11-21T01:45:10;12.00;90.10
76613;DHT22;65507;48.454;-2.058;2023-11-21T01:47:36;12.00;90.10
76613;DHT22;65507;48.454;-2.058;2023-11-21T01:50:03;11.90;90.10
76613;DHT22;65507;48.454;-2.058;2023-11-21T01:52:32;12.00;90.10
76613;DHT22;65507;48.454;-2.058;2023-11-21T01:54:59;12.00;90.10
76613;DHT22;65507;48.454;-2.058;2023-11-21T01:57:25;12.00;90.00
76613;DHT22;65507;48.454;-2.058;2023-11-21T01:59:52;12.10;90.00
76613;DHT22;65507;48.454;-2.058;2023-11-21T02:02:19;12.10;90.00
76613;DHT22;65507;48.454;-2.058;2023-11-21T02:04:45;12.10;89.90
76613;DHT22;65507;48.454;-2.058;2023-11-21T02:07:10;12.10;89.80
76613;DHT22;65507;48.454;-2.058;2023-11-21T02:09:36;12.20;89.60
76613;DHT22;65507;48.454;-2.058;2023-11-21T02:12:04;12.20;89.50
76613;DHT22;65507;48.454;-2.058;2023-11-21T02:14:30;12.20;89.50
76613;DHT22;65507;48.454;-2.058;2023-11-21T02:16:57;12.20;89.50
76613;DHT22;65507;48.454;-2.058;2023-11-21T02:19:23;12.20;89.40
76613;DHT22;65507;48.454;-2.058;2023-11-21T02:21:52;12.20;89.50
76613;DHT22;65507;48.454;-2.058;2023-11-21T02:24:24;12.30;90.10
76613;DHT22;65507;48.454;-2.058;2023-11-21T02:26:50;12.20;89.30
76613;DHT22;65507;48.454;-2.058;2023-11-21T02:29:20;12.30;89.30
76613;DHT22;65507;48.454;-2.058;2023-11-21T02:31:49;12.30;89.20
76613;DHT22;65507;48.454;-2.058;2023-11-21T02:34:15;12.30;89.20
76613;DHT22;65507;48.454;-2.058;2023-11-21T02:36:41;12.20;89.10
76613;DHT22;65507;48.454;-2.058;2023-11-21T02:39:08;12.10;89.30
76613;DHT22;65507;48.454;-2.058;2023-11-21T02:41:34;12.00;89.50
76613;DHT22;65507;48.454;-2.058;2023-11-21T02:44:00;12.00;89.70
76613;DHT22;65507;48.454;-2.058;2023-11-21T02:46:26;11.90;89.80
76613;DHT22;65507;48.454;-2.058;2023-11-21T02:48:52;11.90;89.80
76613;DHT22;65507;48.454;-2.058;2023-11-21T02:51:20;11.90;89.90
76613;DHT22;65507;48.454;-2.058;2023-11-21T02:53:46;11.90;90.00
76613;DHT22;65507;48.454;-2.058;2023-11-21T02:56:12;11.90;90.00
76613;DHT22;65507;48.454;-2.058;2023-11-21T02:58:41;11.90;90.00
76613;DHT22;65507;48.454;-2.058;2023-11-21T03:01:07;11.90;90.00
76613;DHT22;65507;48.454;-2.058;2023-11-21T03:03:33;11.80;90.00
76613;DHT22;65507;48.454;-2.058;2023-11-21T03:05:59;11.80;90.00
76613;DHT22;65507;48.454;-2.058;2023-11-21T03:08:24;11.70;90.10
76613;DHT22;65507;48.454;-2.058;2023-11-21T03:10:50;11.70;90.10
76613;DHT22;65507;48.454;-2.058;2023-11-21T03:13:16;11.60;90.10
76613;DHT22;65507;48.454;-2.058;2023-11-21T03:15:42;11.60;90.20
76613;DHT22;65507;48.454;-2.058;2023-11-21T03:18:08;11.60;90.20
76613;DHT22;65507;48.454;-2.058;2023-11-21T03:20:34;11.60;90.20
76613;DHT22;65507;48.454;-2.058;2023-11-21T03:23:00;11.60;90.20
76613;DHT22;65507;48.454;-2.058;2023-11-21T03:25:26;11.60;90.20
76613;DHT22;65507;48.454;-2.058;2023-11-21T03:27:52;11.60;90.20
76613;DHT22;65507;48.454;-2.058;2023-11-21T03:30:18;11.60;90.20
76613;DHT22;65507;48.454;-2.058;2023-11-21T03:32:44;11.60;90.10
76613;DHT22;65507;48.454;-2.058;2023-11-21T03:35:10;11.60;90.10
76613;DHT22;65507;48.454;-2.058;2023-11-21T03:37:36;11.70;90.10
76613;DHT22;65507;48.454;-2.058;2023-11-21T03:40:03;11.70;90.00
76613;DHT22;65507;48.454;-2.058;2023-11-21T03:42:29;11.30;89.80
76613;DHT22;65507;48.454;-2.058;2023-11-21T03:44:55;11.80;90.00
76613;DHT22;65507;48.454;-2.058;2023-11-21T03:47:21;11.80;90.00
76613;DHT22;65507;48.454;-2.058;2023-11-21T03:49:47;11.80;90.00
76613;DHT22;65507;48.454;-2.058;2023-11-21T03:52:12;11.80;90.10
76613;DHT22;65507;48.454;-2.058;2023-11-21T03:54:38;11.70;90.10
76613;DHT22;65507;48.454;-2.058;2023-11-21T03:57:04;11.70;90.10
76613;DHT22;65507;48.454;-2.058;2023-11-21T03:59:29;11.70;90.20
76613;DHT22;65507;48.454;-2.058;2023-11-21T04:01:56;11.70;90.20
76613;DHT22;65507;48.454;-2.058;2023-11-21T04:04:22;11.70;90.20
76613;DHT22;65507;48.454;-2.058;2023-11-21T04:06:48;11.80;90.20
76613;DHT22;65507;48.454;-2.058;2023-11-21T04:09:14;11.80;90.20
76613;DHT22;65507;48.454;-2.058;2023-11-21T04:11:39;11.80;90.20
76613;DHT22;65507;48.454;-2.058;2023-11-21T04:14:05;11.80;90.10
76613;DHT22;65507;48.454;-2.058;2023-11-21T04:16:31;11.80;90.10
76613;DHT22;65507;48.454;-2.058;2023-11-21T04:18:56;11.80;90.20
76613;DHT22;65507;48.454;-2.058;2023-11-21T04:21:22;11.90;90.10
76613;DHT22;65507;48.454;-2.058;2023-11-21T04:23:49;11.90;90.10
76613;DHT22;65507;48.454;-2.058;2023-11-21T04:26:15;11.80;90.10
76613;DHT22;65507;48.454;-2.058;2023-11-21T04:28:40;11.80;90.20
76613;DHT22;65507;48.454;-2.058;2023-11-21T04:31:06;11.90;90.20
76613;DHT22;65507;48.454;-2.058;2023-11-21T04:33:32;11.90;90.20
76613;DHT22;65507;48.454;-2.058;2023-11-21T04:35:58;11.90;90.20
76613;DHT22;65507;48.454;-2.058;2023-11-21T04:38:24;11.90;90.20
76613;DHT22;65507;48.454;-2.058;2023-11-21T04:40:49;11.90;90.20
76613;DHT22;65507;48.454;-2.058;2023-11-21T04:43:15;11.90;90.20
76613;DHT22;65507;48.454;-2.058;2023-11-21T04:45:41;11.90;90.20
76613;DHT22;65507;48.454;-2.058;2023-11-21T04:48:07;11.90;90.20
76613;DHT22;65507;48.454;-2.058;2023-11-21T04:50:34;11.90;90.20
76613;DHT22;65507;48.454;-2.058;2023-11-21T04:53:00;11.90;90.30
76613;DHT22;65507;48.454;-2.058;2023-11-21T04:55:25;11.90;90.30
76613;DHT22;65507;48.454;-2.058;2023-11-21T04:57:54;11.90;90.30
76613;DHT22;65507;48.454;-2.058;2023-11-21T05:00:20;11.90;90.30
76613;DHT22;65507;48.454;-2.058;2023-11-21T05:02:47;11.90;90.30
76613;DHT22;65507;48.454;-2.058;2023-11-21T05:05:13;11.90;90.30
76613;DHT22;65507;48.454;-2.058;2023-11-21T05:07:40;11.90;90.30
76613;DHT22;65507;48.454;-2.058;2023-11-21T05:10:07;11.90;90.30
76613;DHT22;65507;48.454;-2.058;2023-11-21T05:12:36;11.90;90.30
76613;DHT22;65507;48.454;-2.058;2023-11-21T05:15:04;11.90;90.30
76613;DHT22;65507;48.454;-2.058;2023-11-21T05:17:33;11.90;90.30
76613;DHT22;65507;48.454;-2.058;2023-11-21T05:20:00;11.90;90.30
76613;DHT22;65507;48.454;-2.058;2023-11-21T05:22:29;11.90;90.30
76613;DHT22;65507;48.454;-2.058;2023-11-21T05:24:55;11.90;90.30
76613;DHT22;65507;48.454;-2.058;2023-11-21T05:27:21;12.00;90.30
76613;DHT22;65507;48.454;-2.058;2023-11-21T05:29:47;12.00;90.30
76613;DHT22;65507;48.454;-2.058;2023-11-21T05:32:12;12.00;90.30
76613;DHT22;65507;48.454;-2.058;2023-11-21T05:34:38;12.00;90.40
76613;DHT22;65507;48.454;-2.058;2023-11-21T05:37:03;12.00;90.30
76613;DHT22;65507;48.454;-2.058;2023-11-21T05:39:30;12.00;90.30
76613;DHT22;65507;48.454;-2.058;2023-11-21T05:41:57;11.90;90.30
76613;DHT22;65507;48.454;-2.058;2023-11-21T05:44:23;11.90;90.30
76613;DHT22;65507;48.454;-2.058;2023-11-21T05:46:50;11.90;90.40
76613;DHT22;65507;48.454;-2.058;2023-11-21T05:49:16;11.90;90.40
76613;DHT22;65507;48.454;-2.058;2023-11-21T05:51:42;11.90;90.40
76613;DHT22;65507;48.454;-2.058;2023-11-21T05:54:07;11.90;90.40
76613;DHT22;65507;48.454;-2.058;2023-11-21T05:56:33;11.90;90.30
76613;DHT22;65507;48.454;-2.058;2023-11-21T05:58:59;11.90;90.30
76613;DHT22;65507;48.454;-2.058;2023-11-21T06:01:26;11.90;90.30
76613;DHT22;65507;48.454;-2.058;2023-11-21T06:03:54;11.80;90.30
76613;DHT22;65507;48.454;-2.058;2023-11-21T06:06:21;11.80;90.30
76613;DHT22;65507;48.454;-2.058;2023-11-21T06:08:50;11.80;90.40
76613;DHT22;65507;48.454;-2.058;2023-11-21T06:11:16;11.70;90.50
76613;DHT22;65507;48.454;-2.058;2023-11-21T06:13:42;11.60;90.50
76613;DHT22;65507;48.454;-2.058;2023-11-21T06:16:08;11.60;90.50
76613;DHT22;65507;48.454;-2.058;2023-11-21T06:18:33;11.60;90.50
76613;DHT22;65507;48.454;-2.058;2023-11-21T06:21:00;11.60;90.50
76613;DHT22;65507;48.454;-2.058;2023-11-21T06:23:26;11.50;90.50
76613;DHT22;65507;48.454;-2.058;2023-11-21T06:25:52;11.50;90.50
76613;DHT22;65507;48.454;-2.058;2023-11-21T06:28:18;11.50;90.50
76613;DHT22;65507;48.454;-2.058;2023-11-21T06:30:44;11.60;90.50
76613;DHT22;65507;48.454;-2.058;2023-11-21T06:33:10;11.60;90.50
76613;DHT22;65507;48.454;-2.058;2023-11-21T06:35:36;11.50;90.50
76613;DHT22;65507;48.454;-2.058;2023-11-21T06:38:02;11.50;90.40
76613;DHT22;65507;48.454;-2.058;2023-11-21T06:40:28;11.50;90.50
76613;DHT22;65507;48.454;-2.058;2023-11-21T06:42:54;11.50;90.50
76613;DHT22;65507;48.454;-2.058;2023-11-21T06:45:19;11.50;90.40
76613;DHT22;65507;48.454;-2.058;2023-11-21T06:47:45;11.50;90.40
76613;DHT22;65507;48.454;-2.058;2023-11-21T06:50:11;11.50;90.40
76613;DHT22;65507;48.454;-2.058;2023-11-21T06:52:37;11.50;90.40
76613;DHT22;65507;48.454;-2.058;2023-11-21T06:55:04;11.50;90.40
76613;DHT22;65507;48.454;-2.058;2023-11-21T06:57:31;11.50;90.40
76613;DHT22;65507;48.454;-2.058;2023-11-21T06:59:57;11.50;90.40
76613;DHT22;65507;48.454;-2.058;2023-11-21T07:02:23;11.50;90.40
76613;DHT22;65507;48.454;-2.058;2023-11-21T07:04:49;11.60;90.40
76613;DHT22;65507;48.454;-2.058;2023-11-21T07:07:15;11.60;90.40
76613;DHT22;65507;48.454;-2.058;2023-11-21T07:09:40;11.60;90.40
76613;DHT22;65507;48.454;-2.058;2023-11-21T07:12:06;11.70;90.40
76613;DHT22;65507;48.454;-2.058;2023-11-21T07:14:36;11.70;90.30
76613;DHT22;65507;48.454;-2.058;2023-11-21T07:17:02;11.70;90.40
76613;DHT22;65507;48.454;-2.058;2023-11-21T07:19:28;11.70;90.30
76613;DHT22;65507;48.454;-2.058;2023-11-21T07:21:54;11.80;90.30
76613;DHT22;65507;48.454;-2.058;2023-11-21T07:24:21;11.80;90.30
76613;DHT22;65507;48.454;-2.058;2023-11-21T07:26:48;11.80;90.30
76613;DHT22;65507;48.454;-2.058;2023-11-21T07:29:13;11.70;90.20
76613;DHT22;65507;48.454;-2.058;2023-11-21T07:31:39;11.70;90.30
76613;DHT22;65507;48.454;-2.058;2023-11-21T07:34:06;11.70;90.40
76613;DHT22;65507;48.454;-2.058;2023-11-21T07:36:33;11.60;90.40
76613;DHT22;65507;48.454;-2.058;2023-11-21T07:38:59;11.60;90.40
76613;DHT22;65507;48.454;-2.058;2023-11-21T07:41:25;11.60;90.50
76613;DHT22;65507;48.454;-2.058;2023-11-21T07:43:51;11.60;90.50
76613;DHT22;65507;48.454;-2.058;2023-11-21T07:46:17;11.60;90.50
76613;DHT22;65507;48.454;-2.058;2023-11-21T07:48:43;11.50;90.50
76613;DHT22;65507;48.454;-2.058;2023-11-21T07:51:12;11.50;90.50
76613;DHT22;65507;48.454;-2.058;2023-11-21T07:53:38;11.40;90.50
76613;DHT22;65507;48.454;-2.058;2023-11-21T07:56:08;11.50;90.50
76613;DHT22;65507;48.454;-2.058;2023-11-21T07:58:35;11.50;90.40
76613;DHT22;65507;48.454;-2.058;2023-11-21T08:01:01;11.60;90.40
76613;DHT22;65507;48.454;-2.058;2023-11-21T08:03:27;11.60;90.40
76613;DHT22;65507;48.454;-2.058;2023-11-21T08:05:56;11.70;90.30
76613;DHT22;65507;48.454;-2.058;2023-11-21T08:08:22;11.70;90.30
76613;DHT22;65507;48.454;-2.058;2023-11-21T08:10:47;11.70;90.30
76613;DHT22;65507;48.454;-2.058;2023-11-21T08:13:26;11.70;90.30
76613;DHT22;65507;48.454;-2.058;2023-11-21T08:15:56;11.70;90.30
76613;DHT22;65507;48.454;-2.058;2023-11-21T08:18:22;11.80;90.30
76613;DHT22;65507;48.454;-2.058;2023-11-21T08:20:48;11.80;90.30
76613;DHT22;65507;48.454;-2.058;2023-11-21T08:23:15;11.80;90.30
76613;DHT22;65507;48.454;-2.058;2023-11-21T08:25:45;11.90;90.30
76613;DHT22;65507;48.454;-2.058;2023-11-21T08:28:11;11.90;90.30
76613;DHT22;65507;48.454;-2.058;2023-11-21T08:30:37;12.00;90.30
76613;DHT22;65507;48.454;-2.058;2023-11-21T08:33:03;12.00;90.30
76613;DHT22;65507;48.454;-2.058;2023-11-21T08:35:29;12.00;90.30
76613;DHT22;65507;48.454;-2.058;2023-11-21T08:37:55;12.00;90.30
76613;DHT22;65507;48.454;-2.058;2023-11-21T08:40:21;12.00;90.30
76613;DHT22;65507;48.454;-2.058;2023-11-21T08:42:47;12.00;90.30
76613;DHT22;65507;48.454;-2.058;2023-11-21T08:45:14;12.00;90.30
76613;DHT22;65507;48.454;-2.058;2023-11-21T08:47:40;12.10;90.30
76613;DHT22;65507;48.454;-2.058;2023-11-21T08:50:06;12.10;90.30
76613;DHT22;65507;48.454;-2.058;2023-11-21T08:52:36;12.10;90.30
76613;DHT22;65507;48.454;-2.058;2023-11-21T08:55:02;12.10;90.30
76613;DHT22;65507;48.454;-2.058;2023-11-21T08:57:34;12.20;90.30
76613;DHT22;65507;48.454;-2.058;2023-11-21T09:00:01;12.20;90.30
76613;DHT22;65507;48.454;-2.058;2023-11-21T09:02:26;12.30;90.30
76613;DHT22;65507;48.454;-2.058;2023-11-21T09:04:52;12.30;90.30
76613;DHT22;65507;48.454;-2.058;2023-11-21T09:07:19;12.30;90.30
76613;DHT22;65507;48.454;-2.058;2023-11-21T09:09:46;12.40;90.30
76613;DHT22;65507;48.454;-2.058;2023-11-21T09:12:13;12.40;90.30
76613;DHT22;65507;48.454;-2.058;2023-11-21T09:14:38;12.40;90.30
76613;DHT22;65507;48.454;-2.058;2023-11-21T09:17:05;12.40;90.30
76613;DHT22;65507;48.454;-2.058;2023-11-21T09:19:37;12.50;90.30
76613;DHT22;65507;48.454;-2.058;2023-11-21T09:22:03;12.50;90.30
76613;DHT22;65507;48.454;-2.058;2023-11-21T09:24:30;12.60;90.30
76613;DHT22;65507;48.454;-2.058;2023-11-21T09:26:56;12.60;90.20
76613;DHT22;65507;48.454;-2.058;2023-11-21T09:29:22;12.70;90.20
76613;DHT22;65507;48.454;-2.058;2023-11-21T09:31:48;12.70;90.20
76613;DHT22;65507;48.454;-2.058;2023-11-21T09:34:19;12.70;90.20
76613;DHT22;65507;48.454;-2.058;2023-11-21T09:36:46;12.80;90.20
76613;DHT22;65507;48.454;-2.058;2023-11-21T09:39:11;12.80;90.20
76613;DHT22;65507;48.454;-2.058;2023-11-21T09:41:52;12.90;90.20
76613;DHT22;65507;48.454;-2.058;2023-11-21T09:44:35;12.90;90.10
76613;DHT22;65507;48.454;-2.058;2023-11-21T09:47:02;13.00;90.00
76613;DHT22;65507;48.454;-2.058;2023-11-21T09:49:28;13.00;90.00
76613;DHT22;65507;48.454;-2.058;2023-11-21T09:51:58;13.00;90.00
76613;DHT22;65507;48.454;-2.058;2023-11-21T09:54:30;13.00;90.10
76613;DHT22;65507;48.454;-2.058;2023-11-21T09:56:59;13.00;90.20
76613;DHT22;65507;48.454;-2.058;2023-11-21T09:59:29;13.00;90.10
76613;DHT22;65507;48.454;-2.058;2023-11-21T10:01:56;13.00;90.00
76613;DHT22;65507;48.454;-2.058;2023-11-21T10:04:24;13.00;90.00
76613;DHT22;65507;48.454;-2.058;2023-11-21T10:06:50;13.00;90.00
76613;DHT22;65507;48.454;-2.058;2023-11-21T10:09:17;13.00;89.90
76613;DHT22;65507;48.454;-2.058;2023-11-21T10:11:47;13.10;89.90
76613;DHT22;65507;48.454;-2.058;2023-11-21T10:14:16;13.10;89.80
76613;DHT22;65507;48.454;-2.058;2023-11-21T10:16:44;13.20;89.80
76613;DHT22;65507;48.454;-2.058;2023-11-21T10:19:13;13.20;89.60
76613;DHT22;65507;48.454;-2.058;2023-11-21T10:21:41;13.30;89.60
76613;DHT22;65507;48.454;-2.058;2023-11-21T10:24:07;13.30;89.50
76613;DHT22;65507;48.454;-2.058;2023-11-21T10:26:33;13.30;89.40
76613;DHT22;65507;48.454;-2.058;2023-11-21T10:29:03;13.30;89.30
76613;DHT22;65507;48.454;-2.058;2023-11-21T10:31:32;13.30;89.30
76613;DHT22;65507;48.454;-2.058;2023-11-21T10:34:14;13.30;89.30
76613;DHT22;65507;48.454;-2.058;2023-11-21T10:36:41;13.40;89.30
76613;DHT22;65507;48.454;-2.058;2023-11-21T10:39:07;13.40;89.30
76613;DHT22;65507;48.454;-2.058;2023-11-21T10:41:33;13.40;89.20
76613;DHT22;65507;48.454;-2.058;2023-11-21T10:43:59;13.40;89.10
76613;DHT22;65507;48.454;-2.058;2023-11-21T10:46:25;13.40;89.10
76613;DHT22;65507;48.454;-2.058;2023-11-21T10:48:53;13.40;89.00
76613;DHT22;65507;48.454;-2.058;2023-11-21T10:51:21;13.50;88.90
76613;DHT22;65507;48.454;-2.058;2023-11-21T10:53:47;13.50;88.80
76613;DHT22;65507;48.454;-2.058;2023-11-21T10:56:17;13.50;88.80
76613;DHT22;65507;48.454;-2.058;2023-11-21T10:58:49;13.60;88.60
76613;DHT22;65507;48.454;-2.058;2023-11-21T11:01:15;13.60;88.50
76613;DHT22;65507;48.454;-2.058;2023-11-21T11:03:43;13.60;88.30
76613;DHT22;65507;48.454;-2.058;2023-11-21T11:06:09;13.60;88.20
76613;DHT22;65507;48.454;-2.058;2023-11-21T11:08:40;13.60;88.20
76613;DHT22;65507;48.454;-2.058;2023-11-21T11:11:07;13.70;88.20
76613;DHT22;65507;48.454;-2.058;2023-11-21T11:13:33;13.60;88.00
76613;DHT22;65507;48.454;-2.058;2023-11-21T11:16:00;13.60;87.80
76613;DHT22;65507;48.454;-2.058;2023-11-21T11:18:29;13.70;87.90
76613;DHT22;65507;48.454;-2.058;2023-11-21T11:21:05;13.70;87.90
76613;DHT22;65507;48.454;-2.058;2023-11-21T11:26:47;13.70;87.70
76613;DHT22;65507;48.454;-2.058;2023-11-21T11:34:50;13.70;87.60
76613;DHT22;65507;48.454;-2.058;2023-11-21T11:37:20;13.70;87.70
76613;DHT22;65507;48.454;-2.058;2023-11-21T11:39:45;13.70;87.50
76613;DHT22;65507;48.454;-2.058;2023-11-21T11:42:16;13.70;87.50
76613;DHT22;65507;48.454;-2.058;2023-11-21T11:47:24;13.60;87.60
76613;DHT22;65507;48.454;-2.058;2023-11-21T11:52:53;13.30;88.20
76613;DHT22;65507;48.454;-2.058;2023-11-21T11:55:24;13.10;88.50
76613;DHT22;65507;48.454;-2.058;2023-11-21T11:57:51;12.90;89.20
76613;DHT22;65507;48.454;-2.058;2023-11-21T12:02:57;12.70;89.70
76613;DHT22;65507;48.454;-2.058;2023-11-21T12:05:26;12.70;89.70
76613;DHT22;65507;48.454;-2.058;2023-11-21T12:07:57;12.70;89.80
76613;DHT22;65507;48.454;-2.058;2023-11-21T12:10:30;12.60;89.70
76613;DHT22;65507;48.454;-2.058;2023-11-21T12:13:07;12.70;89.70
76613;DHT22;65507;48.454;-2.058;2023-11-21T12:15:34;12.70;89.60
76613;DHT22;65507;48.454;-2.058;2023-11-21T12:18:00;12.60;89.50
76613;DHT22;65507;48.454;-2.058;2023-11-21T12:20:27;12.70;89.60
76613;DHT22;65507;48.454;-2.058;2023-11-21T12:22:55;12.70;89.40
76613;DHT22;65507;48.454;-2.058;2023-11-21T12:25:24;12.70;89.30
76613;DHT22;65507;48.454;-2.058;2023-11-21T12:27:53;12.70;89.20
76613;DHT22;65507;48.454;-2.058;2023-11-21T12:30:24;12.70;89.10
76613;DHT22;65507;48.454;-2.058;2023-11-21T12:32:52;12.70;89.20
76613;DHT22;65507;48.454;-2.058;2023-11-21T12:35:20;12.70;89.00
76613;DHT22;65507;48.454;-2.058;2023-11-21T12:37:47;12.80;88.90
76613;DHT22;65507;48.454;-2.058;2023-11-21T12:40:13;12.80;88.80
76613;DHT22;65507;48.454;-2.058;2023-11-21T12:42:46;12.90;88.70
76613;DHT22;65507;48.454;-2.058;2023-11-21T12:45:18;12.90;88.50
76613;DHT22;65507;48.454;-2.058;2023-11-21T12:47:49;13.00;88.30
76613;DHT22;65507;48.454;-2.058;2023-11-21T12:50:24;13.10;88.30
76613;DHT22;65507;48.454;-2.058;2023-11-21T12:52:59;13.10;88.10
76613;DHT22;65507;48.454;-2.058;2023-11-21T12:55:25;13.20;88.00
76613;DHT22;65507;48.454;-2.058;2023-11-21T12:57:55;13.20;88.20
76613;DHT22;65507;48.454;-2.058;2023-11-21T13:00:45;13.20;87.90
76613;DHT22;65507;48.454;-2.058;2023-11-21T13:03:13;13.30;87.70
76613;DHT22;65507;48.454;-2.058;2023-11-21T13:05:43;13.20;87.70
76613;DHT22;65507;48.454;-2.058;2023-11-21T13:08:14;13.20;87.80
76613;DHT22;65507;48.454;-2.058;2023-11-21T13:10:45;13.10;87.80
76613;DHT22;65507;48.454;-2.058;2023-11-21T13:13:13;13.00;87.90
76613;DHT22;65507;48.454;-2.058;2023-11-21T13:15:53;13.00;88.20
76613;DHT22;65507;48.454;-2.058;2023-11-21T13:18:26;13.00;88.20
76613;DHT22;65507;48.454;-2.058;2023-11-21T13:20:55;13.00;88.30
76613;DHT22;65507;48.454;-2.058;2023-11-21T13:23:22;12.90;88.10
76613;DHT22;65507;48.454;-2.058;2023-11-21T13:25:48;12.90;88.30
76613;DHT22;65507;48.454;-2.058;2023-11-21T13:28:15;12.90;88.30
76613;DHT22;65507;48.454;-2.058;2023-11-21T13:30:42;12.90;88.20
76613;DHT22;65507;48.454;-2.058;2023-11-21T13:33:10;12.90;88.30
76613;DHT22;65507;48.454;-2.058;2023-11-21T13:35:43;12.90;88.20
76613;DHT22;65507;48.454;-2.058;2023-11-21T13:38:20;12.90;88.10
76613;DHT22;65507;48.454;-2.058;2023-11-21T13:40:52;12.90;88.00
76613;DHT22;65507;48.454;-2.058;2023-11-21T13:43:23;12.90;88.00
76613;DHT22;65507;48.454;-2.058;2023-11-21T13:45:52;12.90;88.10
76613;DHT22;65507;48.454;-2.058;2023-11-21T13:48:27;12.90;87.90
76613;DHT22;65507;48.454;-2.058;2023-11-21T13:51:06;12.90;87.80
76613;DHT22;65507;48.454;-2.058;2023-11-21T13:53:47;12.90;87.70
76613;DHT22;65507;48.454;-2.058;2023-11-21T13:56:18;12.90;87.70
76613;DHT22;65507;48.454;-2.058;2023-11-21T13:58:52;12.90;87.70
76613;DHT22;65507;48.454;-2.058;2023-11-21T14:01:23;12.90;87.70
76613;DHT22;65507;48.454;-2.058;2023-11-21T14:03:58;13.00;87.70
76613;DHT22;65507;48.454;-2.058;2023-11-21T14:06:46;13.00;87.60
76613;DHT22;65507;48.454;-2.058;2023-11-21T14:09:19;12.90;87.50
76613;DHT22;65507;48.454;-2.058;2023-11-21T14:11:51;12.90;87.40
76613;DHT22;65507;48.454;-2.058;2023-11-21T14:14:20;12.60;87.30
76613;DHT22;65507;48.454;-2.058;2023-11-21T14:16:46;12.80;87.30
76613;DHT22;65507;48.454;-2.058;2023-11-21T14:19:11;12.80;87.40
76613;DHT22;65507;48.454;-2.058;2023-11-21T14:21:46;12.70;88.20
76613;DHT22;65507;48.454;-2.058;2023-11-21T14:24:14;12.70;87.30
76613;DHT22;65507;48.454;-2.058;2023-11-21T14:26:44;12.70;87.50
76613;DHT22;65507;48.454;-2.058;2023-11-21T14:29:11;12.70;87.40
76613;DHT22;65507;48.454;-2.058;2023-11-21T14:31:40;12.70;87.30
76613;DHT22;65507;48.454;-2.058;2023-11-21T14:34:06;12.70;87.20
76613;DHT22;65507;48.454;-2.058;2023-11-21T14:36:33;12.60;87.10
76613;DHT22;65507;48.454;-2.058;2023-11-21T14:39:03;12.70;87.30
76613;DHT22;65507;48.454;-2.058;2023-11-21T14:41:33;12.60;87.00
76613;DHT22;65507;48.454;-2.058;2023-11-21T14:44:01;12.50;87.20
76613;DHT22;65507;48.454;-2.058;2023-11-21T14:46:29;12.50;87.30
76613;DHT22;65507;48.454;-2.058;2023-11-21T14:48:54;12.50;87.30
76613;DHT22;65507;48.454;-2.058;2023-11-21T14:51:44;12.40;87.10
76613;DHT22;65507;48.454;-2.058;2023-11-21T14:54:36;12.50;87.20
76613;DHT22;65507;48.454;-2.058;2023-11-21T14:57:12;12.40;87.10
76613;DHT22;65507;48.454;-2.058;2023-11-21T14:59:45;12.40;87.10
76613;DHT22;65507;48.454;-2.058;2023-11-21T15:02:17;12.40;87.10
76613;DHT22;65507;48.454;-2.058;2023-11-21T15:04:48;12.40;87.00
76613;DHT22;65507;48.454;-2.058;2023-11-21T15:07:17;12.40;86.90
76613;DHT22;65507;48.454;-2.058;2023-11-21T15:09:42;12.40;86.80
76613;DHT22;65507;48.454;-2.058;2023-11-21T15:12:10;12.40;86.70
76613;DHT22;65507;48.454;-2.058;2023-11-21T15:14:46;12.40;86.70
76613;DHT22;65507;48.454;-2.058;2023-11-21T15:17:16;12.40;86.80
76613;DHT22;65507;48.454;-2.058;2023-11-21T15:19:56;12.40;86.70
76613;DHT22;65507;48.454;-2.058;2023-11-21T15:22:22;12.30;86.70
76613;DHT22;65507;48.454;-2.058;2023-11-21T15:24:48;12.30;86.70
76613;DHT22;65507;48.454;-2.058;2023-11-21T15:27:15;12.30;86.80
76613;DHT22;65507;48.454;-2.058;2023-11-21T15:29:42;12.30;86.80
76613;DHT22;65507;48.454;-2.058;2023-11-21T15:32:08;12.20;86.70
76613;DHT22;65507;48.454;-2.058;2023-11-21T15:34:35;12.20;86.70